首页
METAR-TAF:

METAR-TAF

机场 :

克尔曼, 伊朗

纬度: 30-15N, 经度: 056-58E, 海拔: 1748米

当前天气观测

该预报发布于32分钟前的08:30 UTC
风速4节,风向
温度 16°C
湿度 21%
气压 1020 hPa
能见度10公里或以上
少量云层高于4000英尺
多云层高于20000英尺

METAR: OIKK 180830Z 09004KT 9999 FEW040 BKN200 16/M06 Q1020 A3012

时间: 12:32 (09:02 UTC)

预报

该预报发布于3小时和32分钟前的05:30 UTC
预报有效从18日的 06点(UTC)到 19日的 12点(UTC)
风速6节,风向东南
能見度: 8000

TAF: OIKK 180530Z 1806/1912 14006KT 8000 NSC

超过4000个机场的气象观测和天气预报(METAR&TAF报告)。

可查询的气象台以黄色和红色小点在地图上表示。

将鼠标移到小点上方,可查看气象台名称。

然后点击查看天气观测和预报。

如需切换地图:点击带黑十字的绿色按钮放大地图;点击带横线的绿色按钮缩小地图;或者点击绿色箭头查看邻近地区的地图。


METAR-TAF: